createdAt,value
2019-02-02T00:01:39.274Z,12.53
2019-02-02T00:04:09.380Z,11.97
2019-02-02T00:06:40.947Z,13.60
2019-02-02T00:09:11.575Z,11.87
2019-02-02T00:11:44.235Z,10.73
2019-02-02T00:14:14.266Z,13.37
2019-02-02T00:16:44.578Z,11.77
2019-02-02T00:19:17.609Z,11.77
2019-02-02T00:21:47.599Z,12.83
2019-02-02T00:24:18.896Z,14.37
2019-02-02T00:26:48.833Z,13.97
2019-02-02T00:29:18.674Z,14.57
2019-02-02T00:31:49.363Z,13.83
2019-02-02T00:34:19.136Z,12.93
2019-02-02T00:36:49.028Z,13.83
2019-02-02T00:39:19.021Z,11.87
2019-02-02T00:41:49.408Z,13.10
2019-02-02T00:44:19.345Z,18.10
2019-02-02T00:46:49.740Z,12.73
2019-02-02T00:49:20.095Z,13.93
2019-02-02T00:51:49.998Z,13.40
2019-02-02T00:54:20.086Z,12.30
2019-02-02T00:56:50.350Z,12.67
2019-02-02T00:59:20.196Z,12.40
2019-02-02T01:01:50.217Z,11.27
2019-02-02T01:04:50.673Z,11.90
2019-02-02T01:07:21.106Z,12.80
2019-02-02T01:09:50.934Z,13.10
2019-02-02T01:12:21.331Z,12.53
2019-02-02T01:14:51.279Z,10.40
2019-02-02T01:17:21.155Z,18.97
2019-02-02T01:19:51.321Z,13.47
2019-02-02T01:22:21.223Z,11.27
2019-02-02T01:24:51.134Z,13.00
2019-02-02T01:27:20.942Z,12.00
2019-02-02T01:29:51.526Z,23.13
2019-02-02T01:32:21.406Z,14.10
2019-02-02T01:34:52.556Z,13.07
2019-02-02T01:37:22.393Z,13.60
2019-02-02T01:40:31.451Z,13.27
2019-02-02T01:43:01.256Z,14.47
2019-02-02T01:45:31.215Z,21.30
2019-02-02T01:48:01.084Z,12.97
2019-02-02T01:50:31.190Z,12.80
2019-02-02T01:53:01.029Z,15.47
2019-02-02T01:55:35.875Z,15.47
2019-02-02T01:58:15.962Z,15.47
2019-02-02T02:00:39.348Z,10.93
2019-02-02T02:03:09.665Z,12.87
2019-02-02T02:05:39.488Z,19.13
2019-02-02T02:08:10.005Z,13.00
2019-02-02T02:10:40.016Z,12.87
2019-02-02T02:13:10.101Z,13.53
2019-02-02T02:15:40.050Z,14.10
2019-02-02T02:18:09.975Z,13.47
2019-02-02T02:20:40.220Z,12.43
2019-02-02T02:23:10.116Z,14.17
2019-02-02T02:25:39.914Z,13.10
2019-02-02T02:28:10.170Z,13.77
2019-02-02T02:30:40.055Z,12.30
2019-02-02T02:33:09.920Z,12.57
2019-02-02T02:35:41.115Z,14.43
2019-02-02T02:38:10.989Z,14.80
2019-02-02T02:40:40.844Z,14.40
2019-02-02T02:43:10.880Z,14.57
2019-02-02T02:45:40.817Z,15.80
2019-02-02T02:48:13.453Z,14.10
2019-02-02T02:50:43.348Z,12.60
2019-02-02T02:53:13.189Z,12.43
2019-02-02T02:55:43.021Z,14.40
2019-02-02T02:58:13.302Z,14.90
2019-02-02T03:00:43.224Z,15.47
2019-02-02T03:03:16.477Z,12.97
2019-02-02T03:05:49.295Z,14.63
2019-02-02T03:08:23.289Z,14.60
2019-02-02T03:10:53.206Z,12.80
2019-02-02T03:13:23.408Z,13.03
2019-02-02T03:15:53.510Z,11.93
2019-02-02T03:18:23.402Z,12.57
2019-02-02T03:20:54.019Z,13.63
2019-02-02T03:23:24.531Z,14.27
2019-02-02T03:25:54.319Z,16.27
2019-02-02T03:28:24.479Z,16.43
2019-02-02T03:30:57.313Z,14.20
2019-02-02T03:33:27.334Z,17.43
2019-02-02T03:35:57.446Z,14.50
2019-02-02T03:38:27.978Z,16.03
2019-02-02T03:41:00.223Z,16.30
2019-02-02T03:43:30.263Z,17.10
2019-02-02T03:46:00.087Z,16.50
2019-02-02T03:48:29.888Z,17.37
2019-02-02T03:50:59.804Z,16.63
2019-02-02T03:53:30.300Z,14.30
2019-02-02T03:56:00.064Z,16.83
2019-02-02T03:58:29.906Z,15.97
2019-02-02T04:01:13.325Z,13.73
2019-02-02T04:03:43.263Z,13.73
2019-02-02T04:06:13.080Z,14.23
2019-02-02T04:08:43.460Z,12.97
2019-02-02T04:11:13.605Z,14.43
2019-02-02T04:13:43.692Z,14.17
2019-02-02T04:16:13.944Z,14.77
2019-02-02T04:18:44.358Z,13.57
2019-02-02T04:21:14.284Z,14.03
2019-02-02T04:23:44.757Z,12.23
2019-02-02T04:26:14.554Z,15.70
2019-02-02T04:28:44.343Z,15.73
2019-02-02T04:31:17.535Z,14.37
2019-02-02T04:33:47.372Z,12.90
2019-02-02T04:36:17.422Z,14.67
2019-02-02T04:38:48.683Z,13.03
2019-02-02T04:41:19.148Z,14.00
2019-02-02T04:43:48.970Z,16.63
2019-02-02T04:46:18.824Z,16.20
2019-02-02T04:48:48.629Z,15.37
2019-02-02T04:51:18.444Z,15.27
2019-02-02T04:53:48.359Z,14.57
2019-02-02T04:56:18.909Z,16.33
2019-02-02T04:58:48.649Z,14.30
2019-02-02T05:01:18.602Z,17.83
2019-02-02T05:03:49.560Z,15.43
2019-02-02T05:06:20.196Z,17.43
2019-02-02T05:08:50.073Z,12.37
2019-02-02T05:11:20.326Z,16.33
2019-02-02T05:13:50.152Z,16.97
2019-02-02T05:16:20.218Z,13.97
2019-02-02T05:18:50.295Z,12.90
2019-02-02T05:21:20.268Z,14.83
2019-02-02T05:23:50.128Z,13.00
2019-02-02T05:26:20.248Z,13.13
2019-02-02T05:28:51.447Z,14.30
2019-02-02T05:31:21.925Z,12.53
2019-02-02T05:33:53.802Z,15.27
2019-02-02T05:36:23.860Z,13.80
2019-02-02T05:39:00.525Z,15.47
2019-02-02T05:41:58.289Z,15.33
2019-02-02T05:44:28.162Z,17.37
2019-02-02T05:46:58.344Z,17.97
2019-02-02T05:49:28.225Z,15.70
2019-02-02T05:51:58.299Z,16.17
2019-02-02T05:54:30.156Z,18.10
2019-02-02T05:57:10.533Z,18.13
2019-02-02T05:59:52.929Z,14.40
2019-02-02T06:03:00.464Z,14.90
2019-02-02T06:05:41.224Z,17.83
2019-02-02T06:08:13.482Z,17.03
2019-02-02T06:10:43.341Z,12.73
2019-02-02T06:17:20.929Z,13.57
2019-02-02T06:19:51.269Z,17.77
2019-02-02T06:25:24.675Z,12.97
2019-02-02T06:27:55.387Z,13.97
2019-02-02T06:30:25.934Z,16.03
2019-02-02T06:32:57.222Z,18.93
2019-02-02T06:35:27.478Z,17.67
2019-02-02T06:38:01.522Z,19.00
2019-02-02T06:40:31.479Z,18.50
2019-02-02T06:43:02.208Z,18.63
2019-02-02T06:45:34.669Z,20.97
2019-02-02T06:48:05.070Z,20.37
2019-02-02T06:50:36.087Z,19.53
2019-02-02T06:53:12.262Z,17.17
2019-02-02T06:55:42.169Z,19.53
2019-02-02T06:58:12.076Z,21.30
2019-02-02T07:00:46.433Z,19.00
2019-02-02T07:03:16.302Z,19.70
2019-02-02T07:05:46.217Z,19.27
2019-02-02T07:08:16.504Z,20.33
2019-02-02T07:10:46.905Z,19.97
2019-02-02T07:13:20.291Z,19.43
2019-02-02T07:15:59.458Z,21.57
2019-02-02T07:18:31.387Z,20.50
2019-02-02T07:21:01.385Z,21.20
2019-02-02T07:23:32.971Z,20.10
2019-02-02T07:26:02.840Z,21.10
2019-02-02T07:28:40.407Z,22.17
2019-02-02T07:31:10.753Z,23.93
2019-02-02T07:33:42.866Z,22.27
2019-02-02T07:36:12.789Z,21.07
2019-02-02T07:38:44.617Z,21.67
2019-02-02T07:41:20.264Z,20.70
2019-02-02T07:43:55.165Z,22.07
2019-02-02T07:46:29.820Z,23.60
2019-02-02T07:49:04.523Z,23.73
2019-02-02T07:51:34.369Z,23.90
2019-02-02T07:54:05.065Z,21.90
2019-02-02T07:56:35.180Z,22.67
2019-02-02T07:59:05.564Z,21.67
2019-02-02T08:01:39.307Z,23.83
2019-02-02T08:04:09.529Z,23.97
2019-02-02T08:06:41.228Z,23.40
2019-02-02T08:09:11.368Z,23.33
2019-02-02T08:11:41.310Z,20.13
2019-02-02T08:14:11.668Z,21.70
2019-02-02T08:16:43.439Z,19.93
2019-02-02T08:19:13.391Z,22.57
2019-02-02T08:21:43.853Z,21.67
2019-02-02T08:24:15.771Z,21.30
2019-02-02T08:26:46.018Z,21.17
2019-02-02T08:29:16.624Z,20.47
2019-02-02T08:31:48.634Z,20.93
2019-02-02T08:34:18.768Z,22.17
2019-02-02T08:36:48.701Z,21.47
2019-02-02T08:39:28.948Z,20.87
2019-02-02T08:41:52.443Z,21.30
2019-02-02T08:44:22.797Z,20.90
2019-02-02T08:46:53.054Z,20.03
2019-02-02T08:49:23.271Z,21.30
2019-02-02T08:51:56.703Z,21.10
2019-02-02T08:54:29.960Z,21.63
2019-02-02T08:57:00.206Z,21.83
2019-02-02T08:59:32.187Z,21.53
2019-02-02T09:02:02.244Z,22.63
2019-02-02T09:04:37.830Z,21.33
2019-02-02T09:07:09.658Z,21.33
2019-02-02T09:09:39.927Z,21.63
2019-02-02T09:12:17.654Z,21.43
2019-02-02T09:14:47.633Z,20.87
2019-02-02T09:17:58.363Z,21.07
2019-02-02T09:20:30.358Z,19.40
2019-02-02T09:23:17.138Z,21.03
2019-02-02T09:25:47.768Z,20.83
2019-02-02T09:28:18.540Z,21.30
2019-02-02T09:30:48.625Z,22.13
2019-02-02T09:33:18.836Z,20.23
2019-02-02T09:35:49.115Z,21.97
2019-02-02T09:38:27.022Z,18.93
2019-02-02T09:40:57.578Z,34.57
2019-02-02T09:43:27.812Z,23.67
2019-02-02T09:46:04.783Z,20.80
2019-02-02T09:48:36.507Z,22.07
2019-02-02T09:51:11.918Z,23.97
2019-02-02T09:53:43.039Z,19.23
2019-02-02T09:56:13.092Z,20.00
2019-02-02T09:58:43.512Z,19.87
2019-02-02T10:01:27.569Z,20.93
2019-02-02T10:03:50.394Z,18.77
2019-02-02T10:06:31.282Z,18.90
2019-02-02T10:09:05.957Z,20.13
2019-02-02T10:11:39.328Z,19.43
2019-02-02T10:14:19.434Z,20.03
2019-02-02T10:16:56.900Z,20.87
2019-02-02T10:19:32.190Z,19.87
2019-02-02T10:22:02.407Z,21.80
2019-02-02T10:24:39.537Z,20.50
2019-02-02T10:27:09.847Z,23.17
2019-02-02T10:29:43.138Z,21.77
2019-02-02T10:32:15.775Z,20.50
2019-02-02T10:34:46.148Z,22.70
2019-02-02T10:41:17.546Z,21.47
2019-02-02T10:43:48.324Z,21.37
2019-02-02T10:46:19.163Z,18.30
2019-02-02T10:48:52.678Z,23.17
2019-02-02T10:51:34.888Z,22.57
2019-02-02T10:54:18.101Z,19.97
2019-02-02T10:56:53.107Z,18.93
2019-02-02T10:59:28.337Z,21.10
2019-02-02T11:02:02.953Z,24.40
2019-02-02T11:04:39.488Z,22.23
2019-02-02T11:07:12.248Z,21.20
2019-02-02T11:09:43.127Z,24.27
2019-02-02T11:12:18.284Z,23.93
2019-02-02T11:14:50.132Z,20.63
2019-02-02T11:17:30.549Z,24.33
2019-02-02T11:20:01.932Z,24.40
2019-02-02T11:22:34.991Z,21.47
2019-02-02T11:29:27.485Z,23.00
2019-02-02T11:32:14.410Z,20.30
2019-02-02T11:35:25.479Z,20.90
2019-02-02T11:38:22.577Z,19.80
2019-02-02T11:46:01.732Z,23.17
2019-02-02T11:51:26.599Z,23.77
2019-02-02T11:53:57.528Z,22.67
2019-02-02T11:56:30.797Z,24.83
2019-02-02T11:59:17.374Z,24.50
2019-02-02T12:01:36.188Z,20.50
2019-02-02T12:04:08.562Z,24.63
2019-02-02T12:06:38.516Z,23.83
2019-02-02T12:09:09.213Z,23.93
2019-02-02T12:11:39.795Z,22.13
2019-02-02T12:14:11.085Z,24.93
2019-02-02T12:16:48.117Z,23.60
2019-02-02T12:19:22.548Z,22.20
2019-02-02T12:21:52.442Z,24.43
2019-02-02T12:24:30.975Z,24.43
2019-02-02T12:27:08.438Z,26.20
2019-02-02T12:29:44.468Z,24.57
2019-02-02T12:32:26.308Z,25.37
2019-02-02T12:34:48.252Z,25.40
2019-02-02T12:37:18.336Z,25.50
2019-02-02T12:39:48.110Z,25.83
2019-02-02T12:42:20.402Z,25.27
2019-02-02T12:44:52.698Z,27.53
2019-02-02T12:47:22.587Z,26.50
2019-02-02T12:49:52.781Z,25.27
2019-02-02T12:52:25.494Z,26.10
2019-02-02T12:54:58.743Z,26.43
2019-02-02T12:57:30.453Z,24.50
2019-02-02T13:00:01.470Z,25.63
2019-02-02T13:02:43.348Z,25.20
2019-02-02T13:05:16.020Z,27.43
2019-02-02T13:07:49.181Z,28.57
2019-02-02T13:10:24.393Z,24.67
2019-02-02T13:12:53.466Z,27.43
2019-02-02T13:15:25.196Z,26.53
2019-02-02T13:17:58.350Z,26.67
2019-02-02T13:20:28.397Z,29.27
2019-02-02T13:23:00.211Z,30.00
2019-02-02T13:25:30.102Z,26.73
2019-02-02T13:28:00.065Z,30.27
2019-02-02T13:30:34.844Z,31.93
2019-02-02T13:33:08.541Z,29.50
2019-02-02T13:35:41.498Z,27.73
2019-02-02T13:38:11.300Z,27.97
2019-02-02T13:40:41.172Z,28.03
2019-02-02T13:43:14.154Z,27.63
2019-02-02T13:45:46.827Z,27.33
2019-02-02T13:48:16.622Z,28.70
2019-02-02T13:50:53.298Z,30.00
2019-02-02T13:53:51.692Z,28.27
2019-02-02T13:56:27.831Z,25.57
2019-02-02T13:58:59.254Z,28.77
2019-02-02T14:01:29.369Z,28.30
2019-02-02T14:04:01.297Z,28.17
2019-02-02T14:06:35.287Z,28.50
2019-02-02T14:09:07.919Z,29.40
2019-02-02T14:11:40.910Z,28.63
2019-02-02T14:14:10.932Z,29.90
2019-02-02T14:16:42.052Z,30.00
2019-02-02T14:19:16.326Z,29.90
2019-02-02T14:21:59.363Z,27.30
2019-02-02T14:24:29.744Z,29.10
2019-02-02T14:27:03.738Z,27.00
2019-02-02T14:29:33.914Z,30.00
2019-02-02T14:32:09.475Z,28.97
2019-02-02T14:34:40.541Z,26.90
2019-02-02T14:37:10.655Z,28.80
2019-02-02T14:39:44.023Z,29.67
2019-02-02T14:42:18.212Z,27.90
2019-02-02T14:45:18.646Z,27.80
2019-02-02T14:47:51.791Z,28.53
2019-02-02T14:50:32.335Z,29.63
2019-02-02T14:53:03.756Z,29.30
2019-02-02T14:55:35.998Z,31.30
2019-02-02T14:58:11.658Z,31.07
2019-02-02T15:00:49.368Z,30.77
2019-02-02T15:03:25.821Z,31.87
2019-02-02T15:05:52.368Z,32.07
2019-02-02T15:08:27.115Z,31.63
2019-02-02T15:10:59.391Z,30.83
2019-02-02T15:13:30.701Z,31.40
2019-02-02T15:16:08.879Z,30.63
2019-02-02T15:18:43.766Z,32.97
2019-02-02T15:21:32.118Z,31.00
2019-02-02T15:24:05.760Z,32.33
2019-02-02T15:26:35.667Z,33.73
2019-02-02T15:29:07.390Z,30.53
2019-02-02T15:31:42.350Z,35.73
2019-02-02T15:34:12.882Z,34.50
2019-02-02T15:36:42.954Z,31.83
2019-02-02T15:39:15.669Z,32.13
2019-02-02T15:41:53.111Z,36.17
2019-02-02T15:44:22.012Z,30.43
2019-02-02T15:46:54.379Z,33.70
2019-02-02T15:49:31.488Z,36.00
2019-02-02T15:52:01.108Z,31.97
2019-02-02T15:54:40.083Z,30.53
2019-02-02T15:57:16.071Z,32.80
2019-02-02T15:59:52.808Z,33.53
2019-02-02T16:02:22.709Z,37.60
2019-02-02T16:04:54.569Z,34.83
2019-02-02T16:07:36.087Z,35.67
2019-02-02T16:10:10.335Z,35.17
2019-02-02T16:13:07.810Z,34.50
2019-02-02T16:15:56.752Z,34.60
2019-02-02T16:18:35.997Z,36.63
2019-02-02T16:21:17.760Z,39.23
2019-02-02T16:24:13.874Z,40.00
2019-02-02T16:26:48.584Z,36.13
2019-02-02T16:29:16.837Z,35.93
2019-02-02T16:31:49.392Z,37.57
2019-02-02T16:34:33.730Z,39.47
2019-02-02T16:37:08.894Z,37.03
2019-02-02T16:39:50.343Z,36.43
2019-02-02T16:42:18.687Z,36.57
2019-02-02T16:44:58.462Z,34.10
2019-02-02T16:47:29.868Z,35.17
2019-02-02T16:49:59.707Z,37.37
2019-02-02T16:52:31.640Z,32.90
2019-02-02T16:55:03.786Z,33.17
2019-02-02T16:57:44.493Z,33.83
2019-02-02T17:00:22.765Z,34.90
2019-02-02T17:02:55.756Z,36.60
2019-02-02T17:05:27.336Z,31.23
2019-02-02T17:08:03.190Z,29.93
2019-02-02T17:10:35.267Z,34.93
2019-02-02T17:13:06.094Z,34.73
2019-02-02T17:15:38.692Z,33.30
2019-02-02T17:18:08.648Z,32.27
2019-02-02T17:20:40.880Z,34.23
2019-02-02T17:23:12.899Z,31.67
2019-02-02T17:25:45.140Z,30.27
2019-02-02T17:28:15.575Z,31.43
2019-02-02T17:30:46.381Z,32.30
2019-02-02T17:33:17.280Z,28.93
2019-02-02T17:35:50.536Z,31.70
2019-02-02T17:38:20.421Z,33.37
2019-02-02T17:40:50.906Z,33.77
2019-02-02T17:43:20.790Z,34.00
2019-02-02T17:45:52.076Z,31.07
2019-02-02T17:48:29.014Z,27.17
2019-02-02T17:51:02.050Z,27.87
2019-02-02T17:53:32.079Z,28.70
2019-02-02T17:56:06.050Z,24.97
2019-02-02T17:58:39.734Z,23.27
2019-02-02T18:01:16.361Z,25.07
2019-02-02T18:03:46.461Z,27.40
2019-02-02T18:06:20.831Z,26.50
2019-02-02T18:08:58.421Z,25.57
2019-02-02T18:11:36.296Z,26.53
2019-02-02T18:14:21.805Z,29.43
2019-02-02T18:16:52.052Z,25.00
2019-02-02T18:19:23.292Z,30.60
2019-02-02T18:21:56.722Z,28.13
2019-02-02T18:24:26.539Z,25.53
2019-02-02T18:26:58.446Z,30.53
2019-02-02T18:29:29.010Z,23.90
2019-02-02T18:32:12.857Z,23.07
2019-02-02T18:34:34.731Z,28.10
2019-02-02T18:37:04.946Z,31.97
2019-02-02T18:39:35.996Z,33.30
2019-02-02T18:42:06.344Z,30.93
2019-02-02T18:44:42.430Z,29.77
2019-02-02T18:47:13.939Z,33.57
2019-02-02T18:49:46.755Z,31.40
2019-02-02T18:52:26.460Z,26.50
2019-02-02T18:55:04.025Z,29.53
2019-02-02T18:57:46.055Z,31.70
2019-02-02T19:00:23.831Z,29.50
2019-02-02T19:02:59.646Z,26.23
2019-02-02T19:05:34.293Z,29.80
2019-02-02T19:08:05.458Z,29.30
2019-02-02T19:10:40.448Z,30.20
2019-02-02T19:13:10.940Z,28.97
2019-02-02T19:15:43.567Z,30.93
2019-02-02T19:18:13.573Z,31.27
2019-02-02T19:20:52.027Z,31.63
2019-02-02T19:23:25.134Z,31.70
2019-02-02T19:25:53.926Z,33.00
2019-02-02T19:28:26.615Z,32.93
2019-02-02T19:30:59.363Z,30.33
2019-02-02T19:33:33.526Z,32.67
2019-02-02T19:36:10.304Z,32.90
2019-02-02T19:38:43.661Z,30.77
2019-02-02T19:41:21.799Z,30.93
2019-02-02T19:43:51.741Z,30.40
2019-02-02T19:46:34.335Z,29.50
2019-02-02T19:49:12.909Z,29.80
2019-02-02T19:51:48.547Z,26.43
2019-02-02T19:54:26.491Z,28.97
2019-02-02T19:57:14.412Z,29.40
2019-02-02T19:59:46.487Z,26.10
2019-02-02T20:02:18.420Z,28.20
2019-02-02T20:04:51.515Z,28.10
2019-02-02T20:07:23.591Z,27.90
2019-02-02T20:09:54.116Z,26.97
2019-02-02T20:12:24.986Z,27.47
2019-02-02T20:14:54.997Z,27.73
2019-02-02T20:17:29.874Z,25.77
2019-02-02T20:20:02.051Z,28.50
2019-02-02T20:22:55.628Z,22.10
2019-02-02T20:29:25.781Z,29.07
2019-02-02T20:32:11.355Z,32.43
2019-02-02T20:35:04.347Z,27.83
2019-02-02T20:37:56.357Z,23.53
2019-02-02T20:40:36.753Z,27.63
2019-02-02T20:44:02.354Z,29.73
2019-02-02T20:47:05.173Z,27.60
2019-02-02T20:50:18.383Z,26.57
2019-02-02T20:53:44.467Z,28.17
2019-02-02T20:56:31.795Z,27.20
2019-02-02T21:00:10.491Z,27.73
2019-02-02T21:03:19.768Z,28.73
2019-02-02T21:05:59.199Z,25.33
2019-02-02T21:08:45.069Z,21.90
2019-02-02T21:11:22.379Z,28.23
2019-02-02T21:14:02.885Z,26.07
2019-02-02T21:18:26.258Z,26.73
2019-02-02T21:19:35.954Z,25.20
2019-02-02T21:23:08.935Z,27.83
2019-02-02T21:27:55.633Z,28.47
2019-02-02T21:30:33.918Z,28.97
2019-02-02T21:33:44.183Z,28.90
2019-02-02T21:59:40.875Z,26.63
2019-02-02T22:04:26.398Z,34.53
2019-02-02T22:09:21.036Z,27.10
2019-02-02T22:12:39.741Z,31.70
2019-02-02T22:33:35.525Z,32.30
2019-02-02T22:57:44.049Z,31.27
2019-02-02T23:00:35.988Z,34.93
2019-02-02T23:03:09.412Z,35.67
2019-02-02T23:06:03.365Z,31.93
2019-02-02T23:09:11.235Z,32.50
2019-02-02T23:12:07.565Z,32.10
2019-02-02T23:15:00.760Z,32.33
2019-02-02T23:17:34.012Z,32.90
2019-02-02T23:20:05.868Z,34.03
2019-02-02T23:22:40.132Z,31.73
2019-02-02T23:25:09.836Z,31.03
2019-02-02T23:27:39.913Z,32.67
2019-02-02T23:30:12.884Z,32.50
2019-02-02T23:32:45.598Z,33.47
2019-02-02T23:35:16.185Z,27.30
2019-02-02T23:37:49.291Z,29.83
2019-02-02T23:40:19.458Z,29.50
2019-02-02T23:42:50.543Z,27.67
2019-02-02T23:45:24.133Z,27.30
2019-02-02T23:47:56.075Z,32.80
2019-02-02T23:50:28.414Z,30.93
2019-02-02T23:52:59.027Z,28.53
2019-02-02T23:55:33.992Z,32.20
2019-02-02T23:58:04.169Z,34.03
